createdAt,value
2023-04-16T00:01:40.523Z,47.55
2023-04-16T00:04:07.462Z,46.17
2023-04-16T00:06:34.417Z,43.27
2023-04-16T00:09:01.380Z,43.28
2023-04-16T00:11:28.164Z,41.72
2023-04-16T00:13:54.833Z,41.83
2023-04-16T00:16:21.645Z,40.88
2023-04-16T00:18:48.441Z,40.00
2023-04-16T00:21:15.252Z,43.15
2023-04-16T00:23:42.055Z,42.22
2023-04-16T00:26:09.246Z,41.45
2023-04-16T00:28:36.237Z,43.00
2023-04-16T00:31:03.217Z,43.53
2023-04-16T00:33:30.431Z,44.80
2023-04-16T00:35:57.188Z,46.67
2023-04-16T00:38:24.174Z,40.53
2023-04-16T00:40:50.871Z,31.43
2023-04-16T00:43:25.614Z,36.38
2023-04-16T00:45:54.285Z,32.72
2023-04-16T00:48:21.312Z,32.35
2023-04-16T00:50:48.685Z,27.43
2023-04-16T00:53:16.352Z,30.92
2023-04-16T00:55:44.033Z,30.70
2023-04-16T00:58:11.038Z,30.60
2023-04-16T01:00:37.852Z,31.10
2023-04-16T01:03:05.891Z,27.55
2023-04-16T01:05:32.793Z,40.53
2023-04-16T01:08:02.892Z,38.97
2023-04-16T01:10:30.212Z,41.13
2023-04-16T01:12:57.179Z,42.30
2023-04-16T01:15:24.114Z,43.50
2023-04-16T01:17:51.112Z,45.00
2023-04-16T01:20:18.076Z,42.97
2023-04-16T01:22:44.855Z,47.90
2023-04-16T01:25:16.012Z,48.40
2023-04-16T01:27:42.915Z,47.20
2023-04-16T01:30:10.062Z,46.10
2023-04-16T01:32:36.941Z,46.57
2023-04-16T01:35:03.983Z,50.17
2023-04-16T01:37:31.414Z,49.67
2023-04-16T01:39:58.352Z,42.42
2023-04-16T01:42:25.114Z,48.15
2023-04-16T01:44:51.885Z,46.67
2023-04-16T01:47:18.711Z,51.20
2023-04-16T01:49:48.401Z,49.10
2023-04-16T01:52:15.240Z,49.33
2023-04-16T01:54:42.307Z,51.03
2023-04-16T01:57:09.516Z,50.67
2023-04-16T01:59:36.318Z,48.10
2023-04-16T02:02:13.655Z,47.17
2023-04-16T02:04:42.067Z,40.22
2023-04-16T02:07:09.282Z,40.10
2023-04-16T02:09:40.627Z,40.30
2023-04-16T02:12:08.001Z,36.97
2023-04-16T02:14:34.737Z,31.63
2023-04-16T02:17:01.556Z,32.40
2023-04-16T02:19:28.372Z,32.10
2023-04-16T02:21:55.729Z,35.58
2023-04-16T02:24:22.665Z,34.20
2023-04-16T02:26:49.514Z,31.87
2023-04-16T02:29:16.719Z,28.02
2023-04-16T02:31:43.639Z,26.23
2023-04-16T02:34:10.511Z,32.00
2023-04-16T02:36:37.206Z,30.05
2023-04-16T02:39:04.402Z,28.17
2023-04-16T02:41:31.113Z,30.53
2023-04-16T02:43:57.857Z,30.05
2023-04-16T02:46:24.818Z,29.98
2023-04-16T02:48:51.724Z,30.90
2023-04-16T02:51:18.447Z,29.52
2023-04-16T02:53:46.309Z,32.13
2023-04-16T02:56:13.271Z,30.55
2023-04-16T02:58:39.946Z,32.27
2023-04-16T03:01:06.690Z,31.38
2023-04-16T03:03:33.497Z,32.03
2023-04-16T03:06:00.462Z,34.03
2023-04-16T03:08:27.867Z,32.63
2023-04-16T03:10:54.768Z,34.35
2023-04-16T03:13:21.569Z,35.05
2023-04-16T03:15:49.932Z,36.08
2023-04-16T03:18:16.748Z,39.78
2023-04-16T03:20:43.485Z,39.45
2023-04-16T03:23:10.603Z,38.42
2023-04-16T03:25:37.306Z,40.93
2023-04-16T03:28:04.699Z,42.60
2023-04-16T03:30:31.669Z,43.00
2023-04-16T03:32:58.536Z,33.03
2023-04-16T03:35:25.340Z,43.60
2023-04-16T03:37:52.884Z,46.28
2023-04-16T03:40:19.627Z,44.38
2023-04-16T03:42:46.672Z,46.72
2023-04-16T03:45:13.573Z,46.27
2023-04-16T03:47:40.401Z,50.53
2023-04-16T03:50:07.984Z,46.38
2023-04-16T03:52:34.773Z,49.45
2023-04-16T03:55:03.934Z,51.00
2023-04-16T03:57:30.639Z,47.60
2023-04-16T03:59:57.455Z,50.13
2023-04-16T04:02:24.341Z,50.83
2023-04-16T04:04:51.299Z,51.03
2023-04-16T04:07:18.175Z,48.08
2023-04-16T04:09:44.858Z,51.90
2023-04-16T04:12:11.663Z,50.50
2023-04-16T04:14:40.243Z,49.78
2023-04-16T04:17:08.858Z,49.67
2023-04-16T04:19:42.341Z,47.33
2023-04-16T04:22:14.144Z,50.30
2023-04-16T04:24:40.852Z,49.72
2023-04-16T04:27:07.704Z,49.05
2023-04-16T04:29:34.553Z,48.70
2023-04-16T04:32:02.130Z,49.35
2023-04-16T04:34:29.075Z,48.72
2023-04-16T04:36:55.844Z,48.40
2023-04-16T04:39:22.732Z,49.53
2023-04-16T04:41:49.594Z,47.60
2023-04-16T04:44:16.727Z,48.10
2023-04-16T04:46:43.591Z,49.10
2023-04-16T04:49:10.581Z,45.40
2023-04-16T04:51:37.700Z,46.10
2023-04-16T04:54:04.625Z,47.88
2023-04-16T04:56:31.331Z,43.97
2023-04-16T04:58:58.105Z,46.33
2023-04-16T05:01:25.054Z,47.92
2023-04-16T05:03:51.848Z,47.53
2023-04-16T05:06:18.769Z,43.85
2023-04-16T05:08:45.585Z,44.72
2023-04-16T05:11:12.330Z,46.83
2023-04-16T05:13:39.373Z,47.38
2023-04-16T05:16:07.052Z,46.77
2023-04-16T05:18:33.769Z,47.15
2023-04-16T05:21:00.618Z,46.72
2023-04-16T05:23:27.329Z,47.47
2023-04-16T05:25:54.122Z,47.35
2023-04-16T05:28:20.867Z,44.05
2023-04-16T05:30:47.557Z,46.03
2023-04-16T05:33:15.043Z,47.85
2023-04-16T05:35:41.928Z,47.58
2023-04-16T05:38:08.789Z,47.15
2023-04-16T05:40:44.265Z,43.13
2023-04-16T05:43:11.202Z,41.88
2023-04-16T05:45:41.645Z,47.45
2023-04-16T05:48:11.529Z,48.08
2023-04-16T05:50:38.747Z,46.70
2023-04-16T05:53:09.601Z,46.40
2023-04-16T05:55:39.244Z,45.25
2023-04-16T05:58:06.069Z,45.95
2023-04-16T06:00:33.667Z,42.72
2023-04-16T06:03:00.943Z,43.22
2023-04-16T06:05:28.106Z,44.47
2023-04-16T06:07:56.220Z,46.83
2023-04-16T06:10:23.092Z,44.97
2023-04-16T06:12:52.814Z,45.75
2023-04-16T06:15:19.619Z,45.00
2023-04-16T06:17:46.438Z,41.80
2023-04-16T06:20:13.599Z,43.90
2023-04-16T06:22:40.835Z,36.93
2023-04-16T06:25:08.023Z,37.50
2023-04-16T06:27:34.772Z,38.17
2023-04-16T06:33:39.722Z,39.83
2023-04-16T06:36:06.503Z,39.05
2023-04-16T06:41:14.637Z,39.13
2023-04-16T06:46:24.380Z,37.22
2023-04-16T06:51:31.482Z,34.00
2023-04-16T06:56:38.439Z,31.25
2023-04-16T06:59:05.056Z,27.77
2023-04-16T07:01:33.864Z,30.65
2023-04-16T07:04:00.900Z,29.25
2023-04-16T07:06:28.050Z,29.03
2023-04-16T07:08:54.650Z,29.33
2023-04-16T07:11:21.444Z,29.70
2023-04-16T07:13:48.210Z,28.65
2023-04-16T07:16:14.895Z,27.13
2023-04-16T07:18:41.499Z,30.88
2023-04-16T07:21:08.171Z,28.30
2023-04-16T07:23:34.799Z,28.98
2023-04-16T07:26:01.445Z,29.27
2023-04-16T07:28:28.079Z,28.83
2023-04-16T07:30:54.827Z,28.00
2023-04-16T07:33:21.461Z,25.98
2023-04-16T07:35:48.080Z,26.35
2023-04-16T07:38:15.121Z,27.58
2023-04-16T07:40:41.770Z,26.27
2023-04-16T07:43:08.715Z,25.98
2023-04-16T07:45:35.452Z,25.40
2023-04-16T07:48:02.188Z,26.15
2023-04-16T07:50:29.953Z,25.98
2023-04-16T07:52:56.539Z,24.67
2023-04-16T07:55:23.095Z,26.30
2023-04-16T07:57:49.676Z,26.60
2023-04-16T08:00:16.617Z,23.52
2023-04-16T08:02:44.433Z,25.27
2023-04-16T08:05:12.635Z,22.83
2023-04-16T08:07:39.271Z,23.80
2023-04-16T08:10:06.539Z,25.15
2023-04-16T08:12:33.219Z,22.40
2023-04-16T08:14:59.814Z,23.55
2023-04-16T08:17:26.540Z,23.73
2023-04-16T08:19:53.133Z,24.65
2023-04-16T08:22:19.848Z,24.60
2023-04-16T08:24:46.464Z,24.17
2023-04-16T08:27:18.972Z,25.17
2023-04-16T08:29:46.257Z,24.75
2023-04-16T08:32:13.157Z,24.50
2023-04-16T08:34:39.712Z,24.23
2023-04-16T08:37:06.306Z,25.30
2023-04-16T08:39:33.165Z,24.15
2023-04-16T08:42:04.878Z,24.63
2023-04-16T08:44:37.535Z,23.35
2023-04-16T08:47:07.597Z,22.33
2023-04-16T08:49:36.979Z,19.70
2023-04-16T08:52:06.768Z,24.58
2023-04-16T08:55:02.005Z,24.50
2023-04-16T08:57:35.733Z,23.02
2023-04-16T09:00:02.733Z,24.10
2023-04-16T09:02:31.559Z,23.93
2023-04-16T09:05:00.386Z,24.73
2023-04-16T09:07:29.015Z,24.15
2023-04-16T09:09:57.972Z,23.83
2023-04-16T09:12:30.794Z,23.35
2023-04-16T09:14:57.638Z,24.38
2023-04-16T09:17:25.403Z,24.48
2023-04-16T09:19:52.146Z,24.15
2023-04-16T09:22:18.778Z,23.50
2023-04-16T09:24:45.679Z,22.55
2023-04-16T09:27:13.102Z,22.20
2023-04-16T09:29:41.644Z,23.67
2023-04-16T09:32:10.276Z,23.30
2023-04-16T09:34:55.842Z,23.05
2023-04-16T09:37:22.429Z,24.10
2023-04-16T09:40:04.004Z,23.92
2023-04-16T09:42:32.796Z,25.63
2023-04-16T09:45:00.929Z,23.63
2023-04-16T09:47:41.559Z,23.67
2023-04-16T09:50:11.815Z,22.60
2023-04-16T09:52:39.284Z,24.35
2023-04-16T09:55:06.657Z,24.05
2023-04-16T09:57:33.292Z,22.83
2023-04-16T10:00:05.288Z,22.33
2023-04-16T10:02:33.324Z,23.30
2023-04-16T10:05:02.432Z,22.35
2023-04-16T10:07:31.755Z,22.08
2023-04-16T10:09:59.086Z,22.77
2023-04-16T10:12:28.262Z,22.25
2023-04-16T10:14:56.172Z,23.17
2023-04-16T10:19:51.387Z,22.33
2023-04-16T10:22:18.340Z,22.15
2023-04-16T10:24:46.892Z,19.10
2023-04-16T10:27:15.536Z,21.35
2023-04-16T10:29:44.035Z,19.73
2023-04-16T10:32:12.277Z,22.98
2023-04-16T10:34:39.256Z,22.63
2023-04-16T10:37:05.991Z,23.33
2023-04-16T10:39:37.662Z,22.75
2023-04-16T10:42:09.549Z,24.58
2023-04-16T10:44:36.700Z,19.13
2023-04-16T10:47:13.457Z,22.70
2023-04-16T10:49:41.333Z,23.67
2023-04-16T10:54:39.784Z,21.35
2023-04-16T10:57:08.994Z,21.75
2023-04-16T10:59:37.943Z,23.80
2023-04-16T11:02:13.324Z,22.77
2023-04-16T11:04:43.389Z,21.88
2023-04-16T11:07:17.701Z,22.27
2023-04-16T11:09:55.612Z,23.42
2023-04-16T11:12:44.904Z,23.02
2023-04-16T11:15:15.552Z,22.52
2023-04-16T11:17:48.145Z,22.20
2023-04-16T11:20:21.042Z,22.65
2023-04-16T11:22:52.442Z,22.05
2023-04-16T11:25:34.205Z,19.60
2023-04-16T11:28:02.483Z,20.50
2023-04-16T11:30:31.684Z,20.65
2023-04-16T11:32:58.479Z,22.73
2023-04-16T11:35:25.354Z,21.75
2023-04-16T11:37:58.961Z,21.38
2023-04-16T11:40:30.060Z,21.40
2023-04-16T11:43:02.697Z,22.02
2023-04-16T11:45:29.513Z,22.45
2023-04-16T11:47:58.025Z,21.20
2023-04-16T11:50:30.039Z,22.15
2023-04-16T11:53:04.349Z,21.42
2023-04-16T11:55:31.391Z,22.45
2023-04-16T11:57:57.978Z,22.63
2023-04-16T12:00:27.612Z,21.40
2023-04-16T12:08:33.337Z,20.85
2023-04-16T12:11:03.479Z,20.70
2023-04-16T12:13:30.813Z,20.73
2023-04-16T12:15:57.509Z,18.52
2023-04-16T12:21:08.862Z,19.45
2023-04-16T12:23:43.049Z,18.25
2023-04-16T12:26:12.775Z,17.98
2023-04-16T12:34:18.532Z,14.95
2023-04-16T12:39:29.597Z,14.88
2023-04-16T12:41:56.301Z,16.30
2023-04-16T12:44:23.985Z,15.55
2023-04-16T12:49:17.073Z,14.00
2023-04-16T12:54:24.803Z,14.65
2023-04-16T12:59:34.937Z,14.20
2023-04-16T13:02:02.943Z,13.27
2023-04-16T13:07:10.073Z,14.80
2023-04-16T13:09:43.549Z,15.75
2023-04-16T13:12:16.570Z,16.67
2023-04-16T13:17:23.735Z,17.10
2023-04-16T13:19:51.704Z,15.93
2023-04-16T13:27:45.826Z,15.77
2023-04-16T13:30:12.822Z,15.43
2023-04-16T13:32:47.006Z,16.07
2023-04-16T13:35:14.222Z,16.70
2023-04-16T13:37:40.772Z,17.52
2023-04-16T13:40:08.434Z,17.75
2023-04-16T13:42:45.510Z,17.05
2023-04-16T13:45:13.932Z,15.82
2023-04-16T13:50:23.321Z,15.48
2023-04-16T13:52:49.900Z,14.80
2023-04-16T13:55:19.301Z,15.18
2023-04-16T13:57:51.211Z,15.18
2023-04-16T14:00:20.799Z,15.80
2023-04-16T14:02:49.106Z,16.65
2023-04-16T14:05:25.812Z,16.30
2023-04-16T14:07:56.467Z,16.73
2023-04-16T14:13:03.626Z,16.15
2023-04-16T14:18:10.876Z,16.85
2023-04-16T14:20:39.930Z,16.77
2023-04-16T14:23:06.770Z,17.42
2023-04-16T14:25:34.077Z,16.88
2023-04-16T14:30:41.691Z,16.77
2023-04-16T14:33:08.295Z,15.93
2023-04-16T14:35:35.041Z,16.15
2023-04-16T14:38:02.301Z,16.75
2023-04-16T14:40:28.947Z,14.80
2023-04-16T14:45:39.197Z,15.90
2023-04-16T14:50:46.722Z,14.63
2023-04-16T14:55:54.894Z,14.75
2023-04-16T14:58:22.130Z,13.75
2023-04-16T15:03:31.057Z,14.88
2023-04-16T15:05:58.462Z,15.00
2023-04-16T15:08:25.077Z,14.98
2023-04-16T15:10:51.930Z,14.95
2023-04-16T15:13:18.516Z,15.10
2023-04-16T15:15:45.529Z,14.50
2023-04-16T15:18:12.464Z,15.27
2023-04-16T15:20:39.218Z,15.27
2023-04-16T15:23:06.007Z,13.98
2023-04-16T15:25:32.660Z,15.38
2023-04-16T15:27:59.557Z,14.32
2023-04-16T15:30:26.246Z,14.30
2023-04-16T15:32:55.059Z,15.32
2023-04-16T15:35:22.685Z,14.27
2023-04-16T15:37:49.251Z,14.00
2023-04-16T15:40:18.918Z,14.50
2023-04-16T15:42:45.796Z,15.55
2023-04-16T15:45:15.290Z,15.03
2023-04-16T15:47:42.565Z,14.55
2023-04-16T15:50:09.729Z,15.82
2023-04-16T15:52:38.667Z,14.57
2023-04-16T15:57:48.274Z,15.85
2023-04-16T16:02:58.589Z,14.00
2023-04-16T16:05:35.062Z,14.07
2023-04-16T16:08:01.934Z,14.25
2023-04-16T16:10:28.576Z,13.63
2023-04-16T16:15:35.550Z,13.73
2023-04-16T16:20:44.266Z,12.82
2023-04-16T16:23:12.056Z,13.02
2023-04-16T16:25:43.498Z,11.90
2023-04-16T16:28:10.286Z,12.95
2023-04-16T16:30:36.913Z,12.53
2023-04-16T16:35:44.048Z,11.88
2023-04-16T16:38:13.525Z,11.75
2023-04-16T16:40:40.108Z,12.00
2023-04-16T16:45:47.361Z,11.45
2023-04-16T16:51:00.825Z,11.53
2023-04-16T16:56:09.063Z,10.68
2023-04-16T17:01:10.295Z,10.30
2023-04-16T17:03:37.035Z,10.90
2023-04-16T17:06:03.881Z,10.25
2023-04-16T17:08:34.360Z,10.75
2023-04-16T17:11:04.558Z,11.00
2023-04-16T17:16:17.134Z,10.20
2023-04-16T17:18:43.743Z,10.80
2023-04-16T17:23:50.963Z,10.32
2023-04-16T17:26:17.640Z,10.10
2023-04-16T17:31:27.996Z,10.13
2023-04-16T17:36:37.002Z,16.80
2023-04-16T17:41:54.298Z,18.65
2023-04-16T17:44:27.016Z,17.30
2023-04-16T17:46:54.871Z,19.17
2023-04-16T17:58:40.597Z,20.00
2023-04-16T18:01:07.356Z,18.67
2023-04-16T18:03:36.798Z,19.23
2023-04-16T18:06:04.322Z,18.30
2023-04-16T18:08:31.852Z,17.02
2023-04-16T18:10:58.720Z,17.52
2023-04-16T18:13:25.544Z,17.15
2023-04-16T18:15:53.220Z,17.65
2023-04-16T18:18:25.512Z,17.98
2023-04-16T18:20:52.923Z,18.85
2023-04-16T18:23:19.710Z,21.00
2023-04-16T18:25:48.836Z,20.63
2023-04-16T18:28:16.023Z,21.95
2023-04-16T18:30:43.000Z,18.57
2023-04-16T18:35:40.799Z,19.85
2023-04-16T18:38:07.772Z,19.42
2023-04-16T18:40:36.085Z,20.13
2023-04-16T18:43:04.917Z,21.17
2023-04-16T18:45:34.225Z,21.52
2023-04-16T18:48:04.713Z,20.55
2023-04-16T18:50:34.656Z,21.17
2023-04-16T18:53:03.262Z,20.88
2023-04-16T18:55:30.845Z,19.65
2023-04-16T18:57:57.926Z,20.10
2023-04-16T19:00:24.842Z,21.33
2023-04-16T19:02:51.572Z,22.40
2023-04-16T19:05:18.902Z,21.38
2023-04-16T19:07:46.144Z,22.95
2023-04-16T19:10:12.949Z,23.52
2023-04-16T19:12:39.694Z,22.70
2023-04-16T19:15:07.037Z,24.00
2023-04-16T19:17:34.127Z,25.23
2023-04-16T19:20:08.513Z,24.67
2023-04-16T19:22:35.885Z,25.85
2023-04-16T19:25:02.724Z,26.30
2023-04-16T19:27:29.775Z,27.15
2023-04-16T19:29:58.596Z,26.30
2023-04-16T19:32:25.540Z,26.35
2023-04-16T19:34:54.587Z,26.00
2023-04-16T19:37:21.468Z,25.63
2023-04-16T19:39:48.993Z,26.35
2023-04-16T19:42:15.955Z,26.30
2023-04-16T19:44:45.454Z,27.37
2023-04-16T19:47:12.203Z,26.48
2023-04-16T19:49:41.740Z,27.00
2023-04-16T19:52:08.624Z,27.60
2023-04-16T19:54:37.691Z,27.30
2023-04-16T19:57:04.774Z,27.77
2023-04-16T19:59:32.499Z,27.53
2023-04-16T20:01:59.460Z,28.25
2023-04-16T20:04:26.639Z,27.77
2023-04-16T20:06:53.736Z,27.83
2023-04-16T20:09:20.584Z,27.03
2023-04-16T20:11:47.698Z,27.48
2023-04-16T20:14:14.572Z,28.13
2023-04-16T20:16:43.933Z,28.50
2023-04-16T20:19:11.282Z,27.52
2023-04-16T20:24:10.831Z,28.00
2023-04-16T20:26:37.851Z,26.55
2023-04-16T20:29:04.821Z,26.57
2023-04-16T20:31:38.032Z,25.50
2023-04-16T20:34:05.032Z,27.65
2023-04-16T20:36:32.284Z,26.50
2023-04-16T20:39:00.119Z,27.65
2023-04-16T20:43:57.081Z,26.63
2023-04-16T20:46:24.688Z,25.75
2023-04-16T20:48:52.147Z,25.90
2023-04-16T20:51:19.082Z,27.42
2023-04-16T20:53:45.804Z,26.10
2023-04-16T20:56:15.115Z,28.42
2023-04-16T20:58:42.905Z,26.75
2023-04-16T21:01:09.907Z,28.05
2023-04-16T21:03:37.397Z,26.03
2023-04-16T21:06:05.088Z,28.27
2023-04-16T21:08:53.911Z,26.65
2023-04-16T21:11:36.630Z,26.45
2023-04-16T21:14:04.986Z,25.95
2023-04-16T21:28:30.159Z,25.70
2023-04-16T21:37:43.609Z,26.88
2023-04-16T21:40:51.509Z,27.20
2023-04-16T21:44:20.849Z,26.98
2023-04-16T21:47:53.000Z,28.98
